Time;durP1;ratioP1;P1;durP2;ratioP2;P2;SDS_P1;SDS_P2;PMS_P1;PMS_P2;Temp;Humidity;BMP_temperature;BMP_pressure;BME280_temperature;BME280_humidity;BME280_pressure;Samples;Min_cycle;Max_cycle;Signal;HPM_P1;HPM_P2
2021/07/31 00:04:20;;;;;;;2.50;1.75;;;21.90;65.20;;;;;;10457633;28;20485;-52
2021/07/31 00:09:21;;;;;;;4.68;1.73;;;21.80;65.20;;;;;;10456822;28;20072;-54
2021/07/31 00:14:22;;;;;;;7.22;2.00;;;21.80;65.20;;;;;;10456856;28;20151;-54
2021/07/31 00:19:22;;;;;;;2.28;1.70;;;21.80;65.20;;;;;;10456732;28;20079;-54
2021/07/31 00:24:23;;;;;;;3.25;1.90;;;21.90;65.10;;;;;;10456681;28;20151;-54
2021/07/31 00:29:24;;;;;;;4.30;2.38;;;21.80;65.00;;;;;;10455828;28;20033;-54
2021/07/31 00:34:25;;;;;;;3.63;1.60;;;21.80;64.90;;;;;;10455095;28;20060;-55
2021/07/31 00:39:25;;;;;;;4.55;2.05;;;21.80;65.10;;;;;;10456171;28;20457;-54
2021/07/31 00:44:26;;;;;;;6.68;2.45;;;21.80;65.20;;;;;;10455398;28;20075;-54
2021/07/31 00:49:28;;;;;;;2.78;1.85;;;21.80;65.20;;;;;;10455682;28;20484;-54
2021/07/31 00:54:29;;;;;;;4.47;2.22;;;21.80;65.20;;;;;;10438088;28;20040;-52
2021/07/31 00:59:30;;;;;;;3.67;2.40;;;21.80;65.40;;;;;;10454830;28;20423;-53
2021/07/31 01:04:31;;;;;;;4.47;2.00;;;21.80;65.20;;;;;;10455199;28;20116;-52
2021/07/31 01:09:32;;;;;;;3.33;2.40;;;21.80;65.40;;;;;;10455195;28;20513;-54
2021/07/31 01:14:32;;;;;;;3.28;1.92;;;21.80;65.50;;;;;;10441032;28;20037;-54
2021/07/31 01:19:33;;;;;;;3.83;2.47;;;21.80;65.40;;;;;;10442199;28;20033;-54
2021/07/31 01:24:34;;;;;;;5.05;2.45;;;21.80;65.50;;;;;;10458883;28;20052;-54
2021/07/31 01:29:34;;;;;;;4.22;2.25;;;21.80;65.40;;;;;;10454395;28;20040;-55
2021/07/31 01:34:35;;;;;;;4.35;2.15;;;21.70;65.40;;;;;;10454613;28;20040;-54
2021/07/31 01:39:36;;;;;;;3.72;2.15;;;21.70;65.50;;;;;;10454460;28;20072;-54
2021/07/31 01:44:37;;;;;;;5.50;2.10;;;21.70;65.60;;;;;;10459607;28;20139;-54
2021/07/31 01:49:37;;;;;;;5.00;2.28;;;21.70;65.70;;;;;;10462527;28;20108;-54
2021/07/31 01:54:38;;;;;;;5.43;2.50;;;21.70;65.80;;;;;;10461832;28;20029;-54
2021/07/31 01:59:39;;;;;;;7.07;2.72;;;21.70;65.80;;;;;;10460803;28;20037;-54
2021/07/31 02:04:39;;;;;;;5.20;2.17;;;21.70;65.70;;;;;;10461365;28;20040;-54
2021/07/31 02:09:40;;;;;;;5.13;2.40;;;21.70;65.70;;;;;;10461855;28;20036;-53
2021/07/31 02:14:41;;;;;;;3.65;2.63;;;21.70;65.70;;;;;;10461387;28;20546;-55
2021/07/31 02:19:41;;;;;;;5.80;2.13;;;21.70;65.80;;;;;;10464008;28;20401;-54
2021/07/31 02:24:42;;;;;;;4.88;2.90;;;21.70;65.90;;;;;;10465697;28;20070;-55
2021/07/31 02:29:43;;;;;;;4.20;2.60;;;21.70;66.00;;;;;;10461182;28;20021;-55
2021/07/31 02:34:44;;;;;;;3.60;2.30;;;21.70;66.00;;;;;;10460619;28;20116;-54
2021/07/31 02:39:44;;;;;;;6.85;2.58;;;21.70;66.10;;;;;;10443186;28;20381;-54
2021/07/31 02:44:45;;;;;;;3.83;2.40;;;21.70;66.10;;;;;;10443872;28;20125;-55
2021/07/31 02:49:45;;;;;;;4.75;2.90;;;21.70;66.00;;;;;;10442900;28;20052;-54
2021/07/31 02:54:46;;;;;;;3.70;2.60;;;21.70;66.00;;;;;;10458954;28;20529;-53
2021/07/31 02:59:47;;;;;;;3.00;2.30;;;21.70;66.60;;;;;;10451103;28;20031;-53
2021/07/31 03:04:47;;;;;;;6.38;3.42;;;21.60;66.00;;;;;;10459539;28;20069;-54
2021/07/31 03:09:48;;;;;;;3.67;2.28;;;21.60;65.90;;;;;;10459458;28;20061;-54
2021/07/31 03:14:49;;;;;;;3.65;2.65;;;21.60;66.50;;;;;;10458859;28;20060;-55
2021/07/31 03:19:50;;;;;;;3.60;2.42;;;21.60;66.00;;;;;;10463176;28;20052;-55
2021/07/31 03:24:50;;;;;;;4.82;2.67;;;21.60;66.20;;;;;;10463008;28;20036;-54
2021/07/31 03:29:51;;;;;;;3.97;2.83;;;21.60;66.10;;;;;;10458656;28;20061;-53
2021/07/31 03:34:52;;;;;;;4.72;3.17;;;21.60;66.10;;;;;;10458388;28;20533;-55
2021/07/31 03:39:52;;;;;;;3.58;2.85;;;21.60;66.20;;;;;;10458355;28;20056;-54
2021/07/31 03:44:53;;;;;;;4.40;2.55;;;21.60;66.20;;;;;;10457648;28;20061;-53
2021/07/31 03:49:54;;;;;;;3.65;2.67;;;21.60;66.20;;;;;;10457836;28;20072;-54
2021/07/31 03:54:54;;;;;;;4.88;2.47;;;21.60;66.20;;;;;;10457722;28;20063;-53
2021/07/31 03:59:55;;;;;;;4.88;2.60;;;21.60;66.20;;;;;;10439421;28;20036;-54
2021/07/31 04:04:56;;;;;;;4.55;3.45;;;21.60;66.20;;;;;;10455942;28;20043;-54
2021/07/31 04:09:57;;;;;;;3.53;2.63;;;21.60;66.30;;;;;;10454917;28;20033;-54
2021/07/31 04:14:57;;;;;;;3.65;2.50;;;21.60;66.40;;;;;;10456113;28;20083;-54
2021/07/31 04:19:58;;;;;;;6.57;3.00;;;21.50;66.40;;;;;;10461610;28;20032;-54
2021/07/31 04:24:59;;;;;;;2.90;2.63;;;21.60;66.50;;;;;;10456678;28;20028;-53
2021/07/31 04:30:00;;;;;;;4.15;2.60;;;21.60;66.60;;;;;;10437346;28;20036;-55
2021/07/31 04:35:03;;;;;;;4.10;2.45;;;21.60;66.60;;;;;;10437407;28;20450;-54
2021/07/31 04:40:04;;;;;;;4.60;3.20;;;21.60;66.60;;;;;;10439308;28;20063;-54
2021/07/31 04:45:06;;;;;;;3.53;2.72;;;21.50;66.60;;;;;;10438090;28;20114;-54
2021/07/31 04:50:09;;;;;;;4.35;2.40;;;21.50;66.50;;;;;;10442017;28;20091;-54
2021/07/31 04:55:10;;;;;;;3.85;2.33;;;21.50;66.50;;;;;;10455865;28;20079;-54
2021/07/31 05:00:11;;;;;;;4.63;2.47;;;21.60;66.70;;;;;;10454667;28;20032;-54
2021/07/31 05:05:12;;;;;;;3.22;2.20;;;21.50;66.70;;;;;;10455643;28;20392;-53
2021/07/31 05:10:13;;;;;;;9.52;3.05;;;21.50;66.70;;;;;;10455141;28;20112;-54
2021/07/31 05:15:13;;;;;;;8.23;2.85;;;21.60;67.40;;;;;;10455488;28;20104;-52
2021/07/31 05:20:14;;;;;;;6.15;2.55;;;21.60;67.50;;;;;;10468320;28;20613;-53
2021/07/31 05:25:15;;;;;;;7.13;3.00;;;21.60;67.90;;;;;;10463877;28;20033;-54
2021/07/31 05:30:16;;;;;;;4.80;2.67;;;21.60;68.10;;;;;;10463175;28;20116;-54
2021/07/31 05:35:17;;;;;;;6.28;2.92;;;21.70;67.90;;;;;;10449251;28;20031;-53
2021/07/31 05:40:18;;;;;;;7.07;2.50;;;21.60;67.80;;;;;;10462596;28;20114;-52
2021/07/31 05:45:19;;;;;;;9.65;3.17;;;21.70;67.90;;;;;;10462245;28;20087;-53
2021/07/31 05:50:19;;;;;;;5.00;2.78;;;21.60;67.70;;;;;;10462478;28;20033;-53
2021/07/31 05:55:20;;;;;;;8.63;2.67;;;21.60;67.70;;;;;;10462317;28;20072;-51
2021/07/31 06:00:21;;;;;;;8.27;2.60;;;21.60;67.70;;;;;;10462099;28;20032;-53
2021/07/31 06:05:22;;;;;;;8.15;3.42;;;21.60;67.50;;;;;;10461987;28;20082;-52
2021/07/31 06:10:22;;;;;;;4.85;2.20;;;21.60;67.60;;;;;;10461650;28;20022;-51
2021/07/31 06:15:23;;;;;;;6.43;2.72;;;21.60;68.30;;;;;;10462047;28;20205;-53
2021/07/31 06:20:24;;;;;;;6.50;3.00;;;21.60;67.50;;;;;;10462753;28;20056;-53
2021/07/31 06:25:24;;;;;;;3.67;2.03;;;21.50;67.50;;;;;;10442219;28;20028;-55
2021/07/31 06:30:25;;;;;;;4.68;2.40;;;21.50;67.60;;;;;;10459143;28;20072;-53
2021/07/31 06:35:26;;;;;;;5.78;2.70;;;21.50;67.60;;;;;;10460044;28;20067;-51
2021/07/31 06:40:26;;;;;;;4.30;2.75;;;21.50;67.50;;;;;;10460359;28;20075;-51
2021/07/31 06:45:27;;;;;;;6.90;2.92;;;21.60;67.70;;;;;;10458757;28;20138;-50
2021/07/31 06:50:28;;;;;;;4.43;2.35;;;21.50;67.40;;;;;;10459617;28;20127;-48
2021/07/31 06:55:28;;;;;;;4.10;2.60;;;21.60;67.40;;;;;;10440191;28;20112;-51
2021/07/31 07:00:29;;;;;;;4.03;2.40;;;21.50;67.50;;;;;;10457407;28;20040;-52
2021/07/31 07:05:30;;;;;;;4.45;2.10;;;21.50;67.50;;;;;;10442789;28;20044;-52
2021/07/31 07:10:32;;;;;;;6.05;2.65;;;21.50;68.20;;;;;;10458658;28;20457;-54
2021/07/31 07:15:32;;;;;;;4.30;2.30;;;21.50;68.30;;;;;;10457545;28;20029;-54
2021/07/31 07:20:33;;;;;;;3.75;2.13;;;21.60;67.90;;;;;;10461269;28;20116;-52
2021/07/31 07:25:34;;;;;;;5.22;2.53;;;21.60;67.80;;;;;;10457901;28;20508;-54
2021/07/31 07:30:35;;;;;;;2.88;2.00;;;21.50;68.00;;;;;;10458329;28;20029;-53
2021/07/31 07:35:35;;;;;;;6.00;2.20;;;21.50;67.80;;;;;;10456782;28;20701;-53
2021/07/31 07:40:36;;;;;;;4.95;2.53;;;21.50;67.90;;;;;;10456864;28;20433;-54
2021/07/31 07:45:37;;;;;;;5.82;2.80;;;21.50;68.00;;;;;;10427978;28;20079;-53
2021/07/31 07:50:37;;;;;;;5.35;2.75;;;21.50;67.90;;;;;;10453961;28;20072;-52
2021/07/31 07:55:38;;;;;;;4.45;2.47;;;21.50;67.90;;;;;;10456527;28;20056;-53
2021/07/31 08:00:42;;;;;;;3.88;1.90;;;21.50;67.80;;;;;;10453471;28;20056;-54
2021/07/31 08:05:43;;;;;;;4.40;2.42;;;21.50;67.70;;;;;;10442947;28;20041;-56
2021/07/31 08:10:44;;;;;;;7.72;2.70;;;21.50;67.70;;;;;;10449097;28;20032;-54
2021/07/31 08:15:44;;;;;;;8.77;2.78;;;21.50;69.00;;;;;;10455264;28;20497;-52
2021/07/31 08:20:45;;;;;;;12.20;3.38;;;21.50;69.10;;;;;;10453593;28;20071;-51
2021/07/31 08:25:46;;;;;;;9.60;2.67;;;21.50;69.60;;;;;;10456484;28;20044;-48
2021/07/31 08:30:47;;;;;;;6.35;2.35;;;21.50;69.10;;;;;;10456088;28;20473;-52
2021/07/31 08:35:47;;;;;;;6.07;3.08;;;21.50;68.90;;;;;;10437699;28;20021;-50
2021/07/31 08:40:48;;;;;;;7.75;2.63;;;21.50;68.70;;;;;;10454069;28;20057;-51
2021/07/31 08:45:49;;;;;;;5.38;2.95;;;21.50;68.50;;;;;;10431389;28;20048;-53
2021/07/31 08:50:53;;;;;;;5.43;2.40;;;21.50;68.50;;;;;;10437546;28;20060;-51
2021/07/31 08:55:53;;;;;;;4.85;2.67;;;21.50;68.40;;;;;;10437483;28;20033;-53
2021/07/31 09:00:56;;;;;;;7.95;3.95;;;21.50;68.30;;;;;;10454124;28;20048;-53
2021/07/31 09:05:57;;;;;;;4.57;2.40;;;21.50;68.40;;;;;;10455480;28;20022;-53
2021/07/31 09:11:04;;;;;;;6.63;2.63;;;21.50;68.30;;;;;;10437557;28;20029;-48
2021/07/31 09:16:08;;;;;;;5.20;2.28;;;21.50;68.40;;;;;;10454772;28;20065;-52
2021/07/31 09:21:14;;;;;;;4.50;3.30;;;21.50;68.30;;;;;;10461217;28;20489;-51
2021/07/31 09:26:16;;;;;;;14.93;4.07;;;21.50;68.60;;;;;;10452289;28;20139;-54
2021/07/31 09:31:20;;;;;;;18.48;3.88;;;21.50;68.80;;;;;;10450351;28;20036;-54
2021/07/31 09:36:21;;;;;;;13.40;3.55;;;21.50;69.30;;;;;;10452222;28;20025;-55
2021/07/31 09:41:23;;;;;;;14.20;4.20;;;21.50;70.50;;;;;;10441222;28;20041;-53
2021/07/31 09:46:44;;;;;;;22.27;4.40;;;21.50;70.10;;;;;;10445209;28;20570;-53
2021/07/31 09:51:53;;;;;;;17.40;4.63;;;21.60;70.00;;;;;;10448138;28;20036;-53
2021/07/31 09:56:54;;;;;;;;;;;21.60;70.20;;;;;;10446350;28;20527;-52
2021/07/31 10:02:00;;;;;;;36.53;6.55;;;21.60;70.30;;;;;;10449085;28;19952;-50
2021/07/31 10:07:02;;;;;;;10.93;4.28;;;21.60;70.50;;;;;;10441621;28;20037;-51
2021/07/31 10:12:04;;;;;;;21.52;5.47;;;21.70;70.80;;;;;;10458603;28;20098;-52
2021/07/31 10:17:05;;;;;;;25.67;7.47;;;21.70;71.00;;;;;;10456043;28;20492;-51
2021/07/31 10:22:06;;;;;;;18.73;6.70;;;21.80;71.30;;;;;;10452371;28;20108;-50
2021/07/31 10:27:15;;;;;;;23.60;9.70;;;21.80;71.60;;;;;;10452487;28;20025;-50
2021/07/31 10:32:19;;;;;;;30.63;12.93;;;21.90;71.80;;;;;;10454735;28;20369;-47
2021/07/31 10:37:32;;;;;;;27.20;23.15;;;21.90;72.40;;;;;;10444958;28;20025;-51
2021/07/31 10:42:52;;;;;;;27.73;17.58;;;22.00;72.10;;;;;;10450538;28;20121;-53
2021/07/31 10:48:03;;;;;;;26.48;23.63;;;22.00;71.50;;;;;;10436438;28;20251;-52
2021/07/31 10:53:12;;;;;;;26.35;23.85;;;22.00;71.70;;;;;;10444754;28;20037;-53
2021/07/31 10:58:20;;;;;;;;;;;22.10;71.90;;;;;;10447662;28;20022;-51
2021/07/31 11:03:21;;;;;;;40.25;36.92;;;22.10;72.10;;;;;;10446887;28;19923;-47
2021/07/31 11:08:23;;;;;;;28.20;24.10;;;22.20;71.80;;;;;;10449569;28;20043;-54
2021/07/31 11:13:24;;;;;;;24.80;22.27;;;22.20;71.80;;;;;;10444078;28;20028;-50
2021/07/31 11:18:42;;;;;;;29.00;21.10;;;22.20;72.00;;;;;;10457569;28;20544;-48
2021/07/31 11:23:54;;;;;;;27.30;18.45;;;22.20;72.10;;;;;;10466401;28;20115;-47
2021/07/31 11:28:55;;;;;;;29.55;15.55;;;22.20;72.20;;;;;;10457510;28;20029;-48
2021/07/31 11:34:06;;;;;;;22.67;13.93;;;22.20;72.10;;;;;;10448817;28;20025;-49
2021/07/31 11:39:09;;;;;;;22.30;10.05;;;22.10;71.70;;;;;;10452575;28;20033;-47
2021/07/31 11:44:21;;;;;;;14.80;8.57;;;22.10;71.70;;;;;;10450220;28;20179;-50
2021/07/31 11:49:28;;;;;;;16.63;7.22;;;22.10;71.70;;;;;;10439571;28;20394;-50
2021/07/31 11:54:30;;;;;;;13.70;6.38;;;22.10;71.60;;;;;;10451020;28;20397;-47
2021/07/31 11:59:37;;;;;;;28.55;6.38;;;22.10;71.80;;;;;;10450113;28;20689;-52
2021/07/31 12:04:48;;;;;;;25.70;6.10;;;22.10;71.60;;;;;;10450854;28;20039;-47
2021/07/31 12:10:10;;;;;;;34.17;7.40;;;22.10;71.60;;;;;;10450326;28;20677;-50
2021/07/31 12:15:24;;;;;;;21.38;6.22;;;22.10;72.20;;;;;;10450031;28;20063;-47
2021/07/31 12:20:42;;;;;;;24.58;6.20;;;22.20;73.20;;;;;;10455754;28;20036;-52
2021/07/31 12:26:10;;;;;;;36.78;7.20;;;22.20;73.50;;;;;;10449915;28;20516;-48
2021/07/31 12:31:41;;;;;;;15.07;4.88;;;22.20;73.30;;;;;;10446089;28;20102;-49
2021/07/31 12:36:55;;;;;;;19.60;5.18;;;22.20;73.00;;;;;;10420765;28;20053;-48
2021/07/31 12:41:56;;;;;;;13.07;4.18;;;22.20;73.10;;;;;;10449530;28;20082;-48
2021/07/31 12:46:57;;;;;;;20.50;5.45;;;22.20;73.10;;;;;;10429435;28;20141;-46
2021/07/31 12:51:58;;;;;;;21.17;5.93;;;22.20;73.10;;;;;;10428197;28;20036;-45
2021/07/31 12:56:59;;;;;;;20.55;6.15;;;22.20;73.00;;;;;;10430906;28;20029;-47
2021/07/31 13:02:00;;;;;;;29.10;5.90;;;22.20;73.30;;;;;;10448577;28;20120;-48
2021/07/31 13:07:01;;;;;;;18.83;5.05;;;22.20;73.00;;;;;;10430648;28;20033;-47
2021/07/31 13:12:02;;;;;;;19.83;4.93;;;22.20;73.20;;;;;;10429441;28;20061;-46
2021/07/31 13:17:03;;;;;;;21.98;4.72;;;22.20;73.30;;;;;;10425916;28;20048;-47
2021/07/31 13:22:03;;;;;;;26.48;5.25;;;22.10;73.40;;;;;;10454602;28;20052;-47
2021/07/31 13:27:04;;;;;;;21.27;4.85;;;22.20;73.60;;;;;;10448188;28;20512;-50
2021/07/31 13:32:05;;;;;;;25.42;5.68;;;22.10;73.60;;;;;;10448132;28;20074;-53
2021/07/31 13:37:08;;;;;;;20.15;4.75;;;22.20;73.50;;;;;;10448005;28;20076;-49
2021/07/31 13:42:09;;;;;;;16.40;5.70;;;22.20;73.50;;;;;;10456070;28;20806;-46
2021/07/31 13:47:10;;;;;;;14.60;3.95;;;22.20;73.60;;;;;;10455699;28;20044;-46
2021/07/31 13:52:11;;;;;;;22.08;4.35;;;22.20;73.60;;;;;;10455821;28;20115;-47
2021/07/31 13:57:12;;;;;;;19.45;5.10;;;22.30;73.80;;;;;;10455423;28;20075;-46
2021/07/31 14:02:13;;;;;;;19.98;4.85;;;22.20;73.80;;;;;;10454832;28;20035;-47
2021/07/31 14:07:14;;;;;;;15.45;3.55;;;22.20;73.30;;;;;;10455184;28;20033;-47
2021/07/31 14:12:19;;;;;;;13.80;3.72;;;22.20;72.90;;;;;;10454990;28;20079;-46
2021/07/31 14:17:19;;;;;;;11.07;4.13;;;22.20;72.70;;;;;;10453178;28;20028;-46
2021/07/31 14:22:20;;;;;;;10.07;4.20;;;22.20;72.60;;;;;;10434928;28;20037;-47
2021/07/31 14:27:21;;;;;;;9.20;4.45;;;22.10;72.50;;;;;;10440482;28;20519;-49
2021/07/31 14:32:21;;;;;;;11.35;4.03;;;22.10;72.50;;;;;;10448724;28;20056;-47
2021/07/31 14:37:22;;;;;;;12.70;4.03;;;22.10;72.30;;;;;;10449181;28;20036;-49
2021/07/31 14:42:22;;;;;;;9.73;3.20;;;22.10;72.40;;;;;;10452388;28;20029;-46
2021/07/31 14:47:23;;;;;;;9.05;3.78;;;22.00;72.10;;;;;;10452358;28;20434;-46
2021/07/31 14:52:24;;;;;;;11.65;4.30;;;22.00;72.20;;;;;;10444886;28;20057;-48
2021/07/31 14:57:26;;;;;;;12.45;4.07;;;22.00;72.30;;;;;;10439454;28;20037;-45
2021/07/31 15:02:27;;;;;;;9.18;3.80;;;22.00;72.10;;;;;;10441581;28;20032;-46
2021/07/31 15:07:28;;;;;;;6.80;3.60;;;22.00;72.10;;;;;;10416596;28;20048;-44
2021/07/31 15:12:29;;;;;;;5.68;3.42;;;22.00;72.10;;;;;;10451876;28;20029;-45
2021/07/31 15:17:29;;;;;;;13.23;4.78;;;22.00;71.80;;;;;;10451658;28;20032;-46
2021/07/31 15:22:30;;;;;;;10.88;3.22;;;22.00;72.10;;;;;;10451994;28;20036;-45
2021/07/31 15:27:31;;;;;;;10.40;3.17;;;22.00;72.10;;;;;;10451631;28;20044;-49
2021/07/31 15:32:31;;;;;;;7.05;3.80;;;22.00;72.10;;;;;;10443468;28;20633;-49
2021/07/31 15:37:32;;;;;;;10.32;3.83;;;22.00;72.10;;;;;;10450425;28;20101;-45
2021/07/31 15:42:33;;;;;;;105.70;42.38;;;22.00;72.10;;;;;;10448559;28;20033;-48
2021/07/31 15:47:34;;;;;;;60.47;21.48;;;22.10;75.10;;;;;;10445772;28;20049;-48
2021/07/31 15:52:37;;;;;;;50.15;25.13;;;22.20;77.60;;;;;;10442504;28;20056;-48
2021/07/31 15:57:39;;;;;;;54.72;21.73;;;22.30;83.00;;;;;;10450403;28;20700;-47
2021/07/31 16:02:40;;;;;;;37.05;16.15;;;22.30;80.70;;;;;;10449903;28;20037;-48
2021/07/31 16:07:40;;;;;;;40.65;15.88;;;22.30;80.00;;;;;;10450202;28;20101;-48
2021/07/31 16:12:41;;;;;;;35.28;13.10;;;22.40;79.00;;;;;;10435558;28;20029;-47
2021/07/31 16:17:42;;;;;;;31.08;13.25;;;22.30;78.00;;;;;;10449161;28;20033;-47
2021/07/31 16:22:42;;;;;;;33.55;12.95;;;22.40;77.80;;;;;;10459747;28;20485;-47
2021/07/31 16:27:43;;;;;;;22.67;10.60;;;22.40;77.60;;;;;;10449816;28;20473;-47
2021/07/31 16:32:44;;;;;;;21.63;10.68;;;22.40;77.10;;;;;;10449441;28;20393;-48
2021/07/31 16:37:44;;;;;;;29.40;11.57;;;22.40;76.70;;;;;;10431263;28;20307;-47
2021/07/31 16:42:45;;;;;;;32.88;9.90;;;22.50;76.20;;;;;;10442627;28;20532;-48
2021/07/31 16:47:46;;;;;;;31.10;10.30;;;22.50;75.80;;;;;;10448432;28;20045;-48
2021/07/31 16:52:46;;;;;;;24.85;9.90;;;22.50;76.00;;;;;;10449168;28;20063;-54
2021/07/31 16:57:47;;;;;;;25.77;10.35;;;22.40;75.50;;;;;;10448213;28;20438;-52
2021/07/31 17:02:48;;;;;;;24.23;8.45;;;22.50;75.70;;;;;;10447263;28;20596;-52
2021/07/31 17:07:48;;;;;;;24.20;9.73;;;22.50;74.70;;;;;;10447802;28;20061;-52
2021/07/31 17:12:49;;;;;;;31.35;8.63;;;22.40;75.90;;;;;;10447296;28;20121;-48
2021/07/31 17:17:50;;;;;;;14.75;8.48;;;22.40;75.00;;;;;;10448240;28;20128;-49
2021/07/31 17:22:51;;;;;;;21.30;7.47;;;22.40;73.80;;;;;;10449880;28;20459;-51
2021/07/31 17:27:53;;;;;;;20.38;7.80;;;22.30;73.70;;;;;;10448450;28;20029;-52
2021/07/31 17:32:54;;;;;;;12.65;7.65;;;22.30;74.40;;;;;;10447016;28;20566;-50
2021/07/31 17:37:55;;;;;;;13.25;7.95;;;22.30;74.00;;;;;;10446995;28;20120;-49
2021/07/31 17:42:56;;;;;;;15.63;7.53;;;22.30;73.90;;;;;;10443393;28;20045;-49
2021/07/31 17:47:57;;;;;;;15.10;6.72;;;22.30;74.00;;;;;;10445429;28;20041;-51
2021/07/31 17:52:58;;;;;;;14.52;6.65;;;22.30;73.60;;;;;;10445179;28;20468;-55
2021/07/31 17:57:58;;;;;;;18.05;6.60;;;22.30;73.40;;;;;;10447569;28;20040;-52
2021/07/31 18:02:59;;;;;;;8.88;4.82;;;22.30;72.90;;;;;;10447359;28;20064;-49
2021/07/31 18:08:00;;;;;;;12.55;5.55;;;22.30;72.30;;;;;;10447432;28;20129;-51
2021/07/31 18:13:03;;;;;;;12.60;5.63;;;22.30;72.30;;;;;;10444745;28;20167;-51
2021/07/31 18:18:03;;;;;;;11.50;5.20;;;22.30;71.90;;;;;;10446267;28;20045;-52
2021/07/31 18:23:04;;;;;;;7.88;4.55;;;22.30;72.30;;;;;;10450879;28;20037;-52
2021/07/31 18:28:05;;;;;;;9.40;5.10;;;22.30;71.60;;;;;;10441364;28;20489;-52
2021/07/31 18:33:05;;;;;;;8.02;4.50;;;22.30;71.40;;;;;;10454276;28;20107;-53
2021/07/31 18:38:06;;;;;;;10.63;4.45;;;22.20;71.00;;;;;;10433876;28;20047;-53
2021/07/31 18:43:07;;;;;;;8.70;5.18;;;22.20;71.00;;;;;;10453051;28;20032;-54
2021/07/31 18:48:08;;;;;;;7.90;3.85;;;22.20;70.90;;;;;;10452667;28;20132;-54
2021/07/31 18:53:08;;;;;;;10.32;4.72;;;22.20;71.10;;;;;;10453647;28;20036;-53
2021/07/31 18:58:09;;;;;;;7.88;4.68;;;22.20;71.30;;;;;;10419221;28;20033;-54
2021/07/31 19:03:10;;;;;;;7.78;4.43;;;22.10;71.40;;;;;;10451728;28;20107;-53
2021/07/31 19:08:10;;;;;;;6.45;4.15;;;22.10;71.40;;;;;;10452001;28;20124;-53
2021/07/31 19:13:11;;;;;;;12.88;5.28;;;22.20;71.50;;;;;;10398438;28;20059;-54
2021/07/31 19:18:13;;;;;;;7.60;4.32;;;22.10;71.20;;;;;;10445328;28;20123;-53
2021/07/31 19:23:14;;;;;;;6.18;4.70;;;22.10;71.20;;;;;;10442914;28;20036;-53
2021/07/31 19:28:15;;;;;;;7.28;3.95;;;22.10;71.60;;;;;;10447889;28;20455;-53
2021/07/31 19:33:15;;;;;;;5.63;4.70;;;22.10;71.40;;;;;;10451636;28;20033;-53
2021/07/31 19:38:16;;;;;;;5.45;3.90;;;22.20;71.40;;;;;;10448347;28;20505;-53
2021/07/31 19:43:17;;;;;;;6.85;4.60;;;22.10;71.40;;;;;;10446894;28;20051;-52
2021/07/31 19:48:18;;;;;;;5.00;3.95;;;22.10;71.30;;;;;;10441145;28;20519;-52
2021/07/31 19:53:19;;;;;;;5.57;4.68;;;22.10;71.40;;;;;;10450898;28;20028;-52
2021/07/31 19:58:20;;;;;;;8.57;3.75;;;22.10;71.30;;;;;;10447541;28;20044;-54
2021/07/31 20:03:21;;;;;;;5.50;3.72;;;22.10;71.30;;;;;;10449108;28;20048;-53
2021/07/31 20:08:21;;;;;;;6.00;3.70;;;22.10;71.30;;;;;;10450065;28;20029;-53
2021/07/31 20:13:23;;;;;;;4.75;4.10;;;22.10;71.30;;;;;;10450238;28;20037;-52
2021/07/31 20:18:24;;;;;;;6.30;3.83;;;22.10;71.30;;;;;;10450340;28;20393;-53
2021/07/31 20:23:26;;;;;;;7.88;4.03;;;22.10;71.20;;;;;;10456997;28;20115;-53
2021/07/31 20:28:27;;;;;;;5.72;3.78;;;22.00;71.10;;;;;;10450062;28;20119;-53
2021/07/31 20:33:28;;;;;;;6.60;3.85;;;22.00;71.10;;;;;;10449523;28;20032;-53
2021/07/31 20:38:29;;;;;;;5.75;4.15;;;22.00;71.00;;;;;;10449525;28;20115;-52
2021/07/31 20:43:29;;;;;;;6.30;3.83;;;22.00;71.00;;;;;;10440434;28;20036;-53
2021/07/31 20:48:31;;;;;;;5.22;3.35;;;22.00;70.90;;;;;;10448311;28;20452;-53
2021/07/31 20:53:35;;;;;;;6.80;3.80;;;22.00;70.80;;;;;;10431526;28;20390;-52
2021/07/31 20:58:36;;;;;;;5.95;3.42;;;22.00;70.70;;;;;;10449059;28;20499;-54
2021/07/31 21:03:37;;;;;;;6.88;3.90;;;22.00;70.70;;;;;;10448145;28;20039;-52
2021/07/31 21:08:38;;;;;;;5.00;3.85;;;22.00;70.60;;;;;;10448739;28;20405;-54
2021/07/31 21:13:39;;;;;;;4.43;3.47;;;22.00;70.50;;;;;;10430743;28;20123;-53
2021/07/31 21:18:40;;;;;;;5.13;3.25;;;21.90;70.40;;;;;;10448524;28;20386;-52
2021/07/31 21:23:41;;;;;;;4.20;3.28;;;21.90;70.30;;;;;;10455283;28;20489;-53
2021/07/31 21:28:41;;;;;;;4.50;3.53;;;21.90;70.30;;;;;;10448422;28;20140;-53
2021/07/31 21:33:42;;;;;;;5.90;3.35;;;21.90;70.10;;;;;;10447796;28;20133;-53
2021/07/31 21:38:43;;;;;;;4.50;3.33;;;21.90;70.20;;;;;;10448255;28;20175;-53
2021/07/31 21:43:44;;;;;;;4.63;3.40;;;21.90;70.10;;;;;;10448163;28;20053;-53
2021/07/31 21:48:45;;;;;;;3.65;2.92;;;21.90;70.00;;;;;;10447670;28;20087;-53
2021/07/31 21:53:46;;;;;;;3.45;3.03;;;21.90;69.90;;;;;;10447720;28;20136;-53
2021/07/31 21:58:46;;;;;;;5.75;3.55;;;21.90;69.90;;;;;;10449001;28;20111;-53
2021/07/31 22:03:51;;;;;;;4.50;3.50;;;21.90;69.80;;;;;;10453827;28;20064;-54
2021/07/31 22:08:51;;;;;;;3.97;2.90;;;21.90;69.80;;;;;;10455541;28;20393;-53
2021/07/31 22:13:52;;;;;;;5.03;3.95;;;21.90;69.70;;;;;;10455321;28;20124;-53
2021/07/31 22:18:53;;;;;;;5.53;3.13;;;21.90;69.70;;;;;;10455043;28;20055;-52
2021/07/31 22:23:54;;;;;;;6.28;4.00;;;21.80;69.50;;;;;;10462333;28;20063;-53
2021/07/31 22:28:55;;;;;;;4.38;3.15;;;21.80;69.60;;;;;;10454740;28;20112;-53
2021/07/31 22:33:56;;;;;;;4.40;3.28;;;21.80;70.10;;;;;;10454378;28;20083;-53
2021/07/31 22:38:56;;;;;;;4.53;3.13;;;21.80;69.70;;;;;;10454285;28;20052;-52
2021/07/31 22:43:57;;;;;;;5.80;3.78;;;21.80;69.60;;;;;;10436301;28;20083;-53
2021/07/31 22:48:58;;;;;;;4.60;3.30;;;21.80;69.50;;;;;;10454079;28;20132;-54
2021/07/31 22:53:58;;;;;;;5.15;3.17;;;21.80;69.40;;;;;;10453808;28;20053;-53
2021/07/31 22:58:59;;;;;;;4.90;3.05;;;21.80;69.50;;;;;;10453541;28;20117;-53
2021/07/31 23:04:00;;;;;;;5.57;3.25;;;21.80;69.60;;;;;;10452173;28;20036;-53
2021/07/31 23:09:01;;;;;;;4.43;3.15;;;21.80;69.40;;;;;;10453099;28;20464;-53
2021/07/31 23:14:01;;;;;;;3.65;3.05;;;21.80;69.30;;;;;;10452251;28;20087;-53
2021/07/31 23:19:02;;;;;;;4.43;3.03;;;21.80;69.30;;;;;;10453100;28;20116;-53
2021/07/31 23:24:03;;;;;;;3.90;3.28;;;21.80;69.10;;;;;;10459848;28;20483;-53
2021/07/31 23:29:04;;;;;;;4.43;3.15;;;21.80;69.20;;;;;;10427783;28;20045;-53
2021/07/31 23:34:05;;;;;;;4.40;2.75;;;21.80;69.00;;;;;;10444702;28;20079;-53
2021/07/31 23:39:06;;;;;;;3.10;2.60;;;21.80;69.00;;;;;;10452094;28;20033;-53
2021/07/31 23:44:06;;;;;;;3.92;3.33;;;21.80;69.00;;;;;;10451835;28;20057;-53
2021/07/31 23:49:07;;;;;;;3.70;3.05;;;21.80;68.90;;;;;;10433608;28;20082;-53
2021/07/31 23:54:08;;;;;;;5.57;3.25;;;21.80;68.90;;;;;;10432934;28;20112;-53
2021/07/31 23:59:09;;;;;;;4.78;3.88;;;21.80;68.90;;;;;;10450781;28;20121;-53
